sensor_id;sensor_type;location;lat;lon;timestamp;pressure;altitude;pressure_sealevel;temperature;humidity
43701;BME280;58809;47.984;7.964;2023-08-07T00:02:09;97386.94;;;9.91;100.00
43701;BME280;58809;47.984;7.964;2023-08-07T00:05:11;97394.53;;;9.94;100.00
43701;BME280;58809;47.984;7.964;2023-08-07T00:08:13;97392.91;;;9.93;100.00
43701;BME280;58809;47.984;7.964;2023-08-07T00:11:14;97397.50;;;9.99;100.00
43701;BME280;58809;47.984;7.964;2023-08-07T00:14:16;97395.81;;;9.98;100.00
43701;BME280;58809;47.984;7.964;2023-08-07T00:17:17;97400.78;;;10.01;100.00
43701;BME280;58809;47.984;7.964;2023-08-07T00:20:19;97399.59;;;10.03;100.00
43701;BME280;58809;47.984;7.964;2023-08-07T00:23:21;97394.31;;;10.03;100.00
43701;BME280;58809;47.984;7.964;2023-08-07T00:26:23;97394.31;;;10.03;100.00
43701;BME280;58809;47.984;7.964;2023-08-07T00:29:24;97398.44;;;10.06;100.00
43701;BME280;58809;47.984;7.964;2023-08-07T00:32:26;97397.63;;;10.06;100.00
43701;BME280;58809;47.984;7.964;2023-08-07T00:35:27;97394.13;;;10.05;100.00
43701;BME280;58809;47.984;7.964;2023-08-07T00:38:29;97394.69;;;10.00;100.00
43701;BME280;58809;47.984;7.964;2023-08-07T00:41:31;97399.78;;;10.02;100.00
43701;BME280;58809;47.984;7.964;2023-08-07T00:44:32;97400.78;;;10.01;100.00
43701;BME280;58809;47.984;7.964;2023-08-07T00:47:34;97396.13;;;10.03;100.00
43701;BME280;58809;47.984;7.964;2023-08-07T00:50:36;97399.25;;;10.07;100.00
43701;BME280;58809;47.984;7.964;2023-08-07T00:53:46;97391.88;;;10.02;100.00
43701;BME280;58809;47.984;7.964;2023-08-07T00:56:48;97396.63;;;10.07;100.00
43701;BME280;58809;47.984;7.964;2023-08-07T00:59:50;97389.88;;;10.04;100.00
43701;BME280;58809;47.984;7.964;2023-08-07T01:02:53;97387.88;;;10.06;100.00
43701;BME280;58809;47.984;7.964;2023-08-07T01:05:56;97399.09;;;10.08;100.00
43701;BME280;58809;47.984;7.964;2023-08-07T01:08:57;97401.56;;;10.10;100.00
43701;BME280;58809;47.984;7.964;2023-08-07T01:12:13;97404.03;;;10.11;100.00
43701;BME280;58809;47.984;7.964;2023-08-07T01:15:22;97408.84;;;10.08;100.00
43701;BME280;58809;47.984;7.964;2023-08-07T01:18:27;97397.44;;;10.07;100.00
43701;BME280;58809;47.984;7.964;2023-08-07T01:21:29;97403.56;;;10.08;100.00
43701;BME280;58809;47.984;7.964;2023-08-07T01:24:30;97405.03;;;10.10;100.00
43701;BME280;58809;47.984;7.964;2023-08-07T01:27:58;97408.22;;;10.06;100.00
43701;BME280;58809;47.984;7.964;2023-08-07T01:31:04;97397.31;;;10.00;100.00
43701;BME280;58809;47.984;7.964;2023-08-07T01:34:08;97399.47;;;9.97;100.00
43701;BME280;58809;47.984;7.964;2023-08-07T01:37:13;97399.97;;;10.00;100.00
43701;BME280;58809;47.984;7.964;2023-08-07T01:40:15;97401.75;;;10.00;100.00
43701;BME280;58809;47.984;7.964;2023-08-07T01:43:18;97395.34;;;9.94;100.00
43701;BME280;58809;47.984;7.964;2023-08-07T01:46:20;97401.47;;;9.95;100.00
43701;BME280;58809;47.984;7.964;2023-08-07T01:49:22;97402.78;;;9.99;100.00
43701;BME280;58809;47.984;7.964;2023-08-07T01:52:24;97411.88;;;9.96;100.00
43701;BME280;58809;47.984;7.964;2023-08-07T01:55:25;97411.19;;;9.94;100.00
43701;BME280;58809;47.984;7.964;2023-08-07T01:58:27;97413.00;;;10.02;100.00
43701;BME280;58809;47.984;7.964;2023-08-07T02:01:29;97414.97;;;10.00;100.00
43701;BME280;58809;47.984;7.964;2023-08-07T02:04:31;97413.34;;;9.99;100.00
43701;BME280;58809;47.984;7.964;2023-08-07T02:07:33;97412.53;;;9.98;100.00
43701;BME280;58809;47.984;7.964;2023-08-07T02:10:36;97410.88;;;9.97;100.00
43701;BME280;58809;47.984;7.964;2023-08-07T02:13:38;97408.56;;;9.94;100.00
43701;BME280;58809;47.984;7.964;2023-08-07T02:16:40;97403.19;;;9.79;100.00
43701;BME280;58809;47.984;7.964;2023-08-07T02:19:42;97407.31;;;9.82;100.00
43701;BME280;58809;47.984;7.964;2023-08-07T02:22:43;97413.44;;;9.74;100.00
43701;BME280;58809;47.984;7.964;2023-08-07T02:25:45;97412.50;;;9.67;100.00
43701;BME280;58809;47.984;7.964;2023-08-07T02:28:48;97408.88;;;9.60;100.00
43701;BME280;58809;47.984;7.964;2023-08-07T02:31:49;97411.19;;;9.55;100.00
43701;BME280;58809;47.984;7.964;2023-08-07T02:34:51;97414.31;;;9.50;100.00
43701;BME280;58809;47.984;7.964;2023-08-07T02:37:53;97417.63;;;9.52;100.00
43701;BME280;58809;47.984;7.964;2023-08-07T02:40:54;97419.13;;;9.55;100.00
43701;BME280;58809;47.984;7.964;2023-08-07T02:43:56;97417.78;;;9.59;100.00
43701;BME280;58809;47.984;7.964;2023-08-07T02:46:58;97419.72;;;9.65;100.00
43701;BME280;58809;47.984;7.964;2023-08-07T02:49:59;97414.16;;;9.60;100.00
43701;BME280;58809;47.984;7.964;2023-08-07T02:53:01;97414.28;;;9.67;100.00
43701;BME280;58809;47.984;7.964;2023-08-07T02:56:03;97411.97;;;9.72;100.00
43701;BME280;58809;47.984;7.964;2023-08-07T02:59:05;97418.38;;;9.77;100.00
43701;BME280;58809;47.984;7.964;2023-08-07T03:02:07;97408.47;;;9.79;100.00
43701;BME280;58809;47.984;7.964;2023-08-07T03:05:09;97415.41;;;9.80;100.00
43701;BME280;58809;47.984;7.964;2023-08-07T03:08:11;97420.16;;;9.85;100.00
43701;BME280;58809;47.984;7.964;2023-08-07T03:11:12;97418.16;;;9.87;100.00
43701;BME280;58809;47.984;7.964;2023-08-07T03:14:14;97424.94;;;9.90;100.00
43701;BME280;58809;47.984;7.964;2023-08-07T03:17:16;97420.81;;;9.87;100.00
43701;BME280;58809;47.984;7.964;2023-08-07T03:20:18;97419.66;;;9.90;100.00
43701;BME280;58809;47.984;7.964;2023-08-07T03:23:19;97425.09;;;9.96;100.00
43701;BME280;58809;47.984;7.964;2023-08-07T03:26:21;97417.16;;;9.96;100.00
43701;BME280;58809;47.984;7.964;2023-08-07T03:29:23;97412.88;;;9.95;100.00
43701;BME280;58809;47.984;7.964;2023-08-07T03:32:26;97415.34;;;9.97;100.00
43701;BME280;58809;47.984;7.964;2023-08-07T03:35:27;97418.63;;;9.99;100.00
43701;BME280;58809;47.984;7.964;2023-08-07T03:38:29;97416.97;;;9.98;100.00
43701;BME280;58809;47.984;7.964;2023-08-07T03:41:31;97414.97;;;10.00;100.00
43701;BME280;58809;47.984;7.964;2023-08-07T03:44:34;97416.97;;;9.98;100.00
43701;BME280;58809;47.984;7.964;2023-08-07T03:47:36;97420.63;;;9.97;100.00
43701;BME280;58809;47.984;7.964;2023-08-07T03:50:37;97423.09;;;9.98;100.00
43701;BME280;58809;47.984;7.964;2023-08-07T03:53:39;97417.47;;;10.01;100.00
43701;BME280;58809;47.984;7.964;2023-08-07T03:56:41;97417.81;;;9.98;100.00
43701;BME280;58809;47.984;7.964;2023-08-07T03:59:43;97416.00;;;9.99;100.00
43701;BME280;58809;47.984;7.964;2023-08-07T04:02:45;97414.69;;;9.95;100.00
43701;BME280;58809;47.984;7.964;2023-08-07T04:05:52;97421.63;;;9.96;100.00
43701;BME280;58809;47.984;7.964;2023-08-07T04:08:56;97422.31;;;9.90;100.00
43701;BME280;58809;47.984;7.964;2023-08-07T04:11:58;97414.72;;;9.87;100.00
43701;BME280;58809;47.984;7.964;2023-08-07T04:14:59;97423.13;;;9.90;100.00
43701;BME280;58809;47.984;7.964;2023-08-07T04:18:01;97422.97;;;9.92;100.00
43701;BME280;58809;47.984;7.964;2023-08-07T04:21:03;97419.50;;;9.91;100.00
43701;BME280;58809;47.984;7.964;2023-08-07T04:24:05;97420.16;;;9.93;100.00
43701;BME280;58809;47.984;7.964;2023-08-07T04:27:11;97421.78;;;9.94;100.00
43701;BME280;58809;47.984;7.964;2023-08-07T04:30:13;97427.53;;;9.98;100.00
43701;BME280;58809;47.984;7.964;2023-08-07T04:33:15;97424.09;;;9.97;100.00
43701;BME280;58809;47.984;7.964;2023-08-07T04:36:17;97428.41;;;9.98;100.00
43701;BME280;58809;47.984;7.964;2023-08-07T04:39:18;97434.50;;;9.99;100.00
43701;BME280;58809;47.984;7.964;2023-08-07T04:42:20;97433.47;;;10.00;100.00
43701;BME280;58809;47.984;7.964;2023-08-07T04:45:22;97432.16;;;10.04;100.00
43701;BME280;58809;47.984;7.964;2023-08-07T04:48:24;97436.97;;;10.00;100.00
43701;BME280;58809;47.984;7.964;2023-08-07T04:51:27;97432.34;;;10.02;100.00
43701;BME280;58809;47.984;7.964;2023-08-07T04:54:32;97438.09;;;10.06;100.00
43701;BME280;58809;47.984;7.964;2023-08-07T04:57:33;97440.59;;;10.08;100.00
43701;BME280;58809;47.984;7.964;2023-08-07T05:00:35;97439.56;;;10.09;100.00
43701;BME280;58809;47.984;7.964;2023-08-07T05:03:37;97442.22;;;10.09;100.00
43701;BME280;58809;47.984;7.964;2023-08-07T05:06:39;97448.63;;;10.14;100.00
43701;BME280;58809;47.984;7.964;2023-08-07T05:09:40;97455.25;;;10.18;100.00
43701;BME280;58809;47.984;7.964;2023-08-07T05:12:42;97453.72;;;10.24;100.00
43701;BME280;58809;47.984;7.964;2023-08-07T05:15:46;97448.25;;;10.26;100.00
43701;BME280;58809;47.984;7.964;2023-08-07T05:18:48;97448.72;;;10.29;100.00
43701;BME280;58809;47.984;7.964;2023-08-07T05:21:51;97451.38;;;10.29;100.00
43701;BME280;58809;47.984;7.964;2023-08-07T05:24:53;97453.88;;;10.31;100.00
43701;BME280;58809;47.984;7.964;2023-08-07T05:27:54;97448.25;;;10.34;100.00
43701;BME280;58809;47.984;7.964;2023-08-07T05:30:56;97457.09;;;10.49;100.00
43701;BME280;58809;47.984;7.964;2023-08-07T05:33:58;97461.69;;;10.55;100.00
43701;BME280;58809;47.984;7.964;2023-08-07T05:36:59;97456.00;;;10.67;100.00
43701;BME280;58809;47.984;7.964;2023-08-07T05:40:04;97460.94;;;10.70;100.00
43701;BME280;58809;47.984;7.964;2023-08-07T05:43:06;97459.59;;;10.74;100.00
43701;BME280;58809;47.984;7.964;2023-08-07T05:46:08;97464.25;;;10.72;100.00
43701;BME280;58809;47.984;7.964;2023-08-07T05:49:10;97467.84;;;10.79;100.00
43701;BME280;58809;47.984;7.964;2023-08-07T05:52:11;97472.66;;;10.75;100.00
43701;BME280;58809;47.984;7.964;2023-08-07T05:55:13;97463.53;;;10.78;100.00
43701;BME280;58809;47.984;7.964;2023-08-07T05:58:15;97465.00;;;10.81;100.00
43701;BME280;58809;47.984;7.964;2023-08-07T06:01:17;97475.13;;;10.77;100.00
43701;BME280;58809;47.984;7.964;2023-08-07T06:04:20;97481.72;;;10.81;100.00
43701;BME280;58809;47.984;7.964;2023-08-07T06:07:22;97479.59;;;11.00;100.00
43701;BME280;58809;47.984;7.964;2023-08-07T06:10:24;97479.09;;;11.19;100.00
43701;BME280;58809;47.984;7.964;2023-08-07T06:13:26;97488.41;;;11.38;100.00
43701;BME280;58809;47.984;7.964;2023-08-07T06:16:37;97491.16;;;11.45;100.00
43701;BME280;58809;47.984;7.964;2023-08-07T06:19:38;97491.53;;;11.56;100.00
43701;BME280;58809;47.984;7.964;2023-08-07T06:22:40;97490.91;;;11.69;100.00
43701;BME280;58809;47.984;7.964;2023-08-07T06:25:42;97500.88;;;11.67;100.00
43701;BME280;58809;47.984;7.964;2023-08-07T06:28:44;97489.50;;;11.97;100.00
43701;BME280;58809;47.984;7.964;2023-08-07T06:31:46;97493.53;;;12.07;100.00
43701;BME280;58809;47.984;7.964;2023-08-07T06:34:48;97504.22;;;12.14;100.00
43701;BME280;58809;47.984;7.964;2023-08-07T06:37:49;97502.84;;;12.33;100.00
43701;BME280;58809;47.984;7.964;2023-08-07T06:40:51;97505.13;;;12.36;100.00
43701;BME280;58809;47.984;7.964;2023-08-07T06:43:53;97505.41;;;12.26;100.00
43701;BME280;58809;47.984;7.964;2023-08-07T06:46:55;97512.84;;;12.31;100.00
43701;BME280;58809;47.984;7.964;2023-08-07T06:49:56;97514.09;;;12.35;100.00
43701;BME280;58809;47.984;7.964;2023-08-07T06:52:58;97510.84;;;12.55;100.00
43701;BME280;58809;47.984;7.964;2023-08-07T06:56:00;97518.19;;;12.52;100.00
43701;BME280;58809;47.984;7.964;2023-08-07T06:59:02;97506.41;;;12.55;100.00
43701;BME280;58809;47.984;7.964;2023-08-07T07:02:04;97511.63;;;12.85;100.00
43701;BME280;58809;47.984;7.964;2023-08-07T07:05:05;97513.59;;;12.98;100.00
43701;BME280;58809;47.984;7.964;2023-08-07T07:08:07;97516.78;;;13.08;100.00
43701;BME280;58809;47.984;7.964;2023-08-07T07:11:09;97520.44;;;13.07;100.00
43701;BME280;58809;47.984;7.964;2023-08-07T07:14:11;97515.94;;;12.71;100.00
43701;BME280;58809;47.984;7.964;2023-08-07T07:17:13;97521.59;;;12.46;100.00
43701;BME280;58809;47.984;7.964;2023-08-07T07:20:15;97532.03;;;12.48;100.00
43701;BME280;58809;47.984;7.964;2023-08-07T07:23:16;97537.69;;;12.60;100.00
43701;BME280;58809;47.984;7.964;2023-08-07T07:26:18;97537.94;;;12.65;100.00
43701;BME280;58809;47.984;7.964;2023-08-07T07:29:20;97535.19;;;12.73;100.00
43701;BME280;58809;47.984;7.964;2023-08-07T07:32:21;97542.38;;;12.94;100.00
43701;BME280;58809;47.984;7.964;2023-08-07T07:35:23;97539.91;;;12.93;100.00
43701;BME280;58809;47.984;7.964;2023-08-07T07:38:25;97541.72;;;12.92;100.00
43701;BME280;58809;47.984;7.964;2023-08-07T07:41:27;97546.91;;;12.79;100.00
43701;BME280;58809;47.984;7.964;2023-08-07T07:44:29;97552.69;;;13.04;100.00
43701;BME280;58809;47.984;7.964;2023-08-07T07:47:31;97542.91;;;13.04;100.00
43701;BME280;58809;47.984;7.964;2023-08-07T07:50:33;97548.16;;;13.19;100.00
43701;BME280;58809;47.984;7.964;2023-08-07T07:53:35;97546.69;;;13.32;100.00
43701;BME280;58809;47.984;7.964;2023-08-07T07:56:37;97548.38;;;13.39;100.00
43701;BME280;58809;47.984;7.964;2023-08-07T07:59:38;97548.50;;;13.53;100.00
43701;BME280;58809;47.984;7.964;2023-08-07T08:02:40;97556.28;;;13.33;100.00
43701;BME280;58809;47.984;7.964;2023-08-07T08:05:44;97559.59;;;13.20;100.00
43701;BME280;58809;47.984;7.964;2023-08-07T08:08:45;97559.56;;;13.35;100.00
43701;BME280;58809;47.984;7.964;2023-08-07T08:11:47;97567.13;;;13.16;100.00
43701;BME280;58809;47.984;7.964;2023-08-07T08:14:49;97577.00;;;13.22;100.00
43701;BME280;58809;47.984;7.964;2023-08-07T08:18:11;97580.94;;;12.90;100.00
43701;BME280;58809;47.984;7.964;2023-08-07T08:21:13;97576.97;;;13.01;100.00
43701;BME280;58809;47.984;7.964;2023-08-07T08:24:15;97579.34;;;13.10;100.00
43701;BME280;58809;47.984;7.964;2023-08-07T08:27:16;97584.63;;;13.69;100.00
43701;BME280;58809;47.984;7.964;2023-08-07T08:30:19;97592.59;;;14.53;100.00
43701;BME280;58809;47.984;7.964;2023-08-07T08:33:21;97591.34;;;14.84;100.00
43701;BME280;58809;47.984;7.964;2023-08-07T08:36:23;97589.03;;;14.74;100.00
43701;BME280;58809;47.984;7.964;2023-08-07T08:39:26;97591.97;;;14.51;100.00
43701;BME280;58809;47.984;7.964;2023-08-07T08:42:27;97593.69;;;14.02;100.00
43701;BME280;58809;47.984;7.964;2023-08-07T08:45:30;97596.66;;;13.64;100.00
43701;BME280;58809;47.984;7.964;2023-08-07T08:48:35;97593.97;;;13.21;100.00
43701;BME280;58809;47.984;7.964;2023-08-07T08:51:38;97586.41;;;13.03;100.00
43701;BME280;58809;47.984;7.964;2023-08-07T08:54:40;97592.06;;;12.79;100.00
43701;BME280;58809;47.984;7.964;2023-08-07T08:57:41;97597.66;;;12.24;100.00
43701;BME280;58809;47.984;7.964;2023-08-07T09:00:43;97598.44;;;11.95;100.00
43701;BME280;58809;47.984;7.964;2023-08-07T09:03:45;97604.06;;;12.30;100.00
43701;BME280;58809;47.984;7.964;2023-08-07T09:06:47;97607.34;;;12.77;100.00
43701;BME280;58809;47.984;7.964;2023-08-07T09:09:49;97599.09;;;13.23;100.00
43701;BME280;58809;47.984;7.964;2023-08-07T09:13:00;97600.59;;;13.69;100.00
43701;BME280;58809;47.984;7.964;2023-08-07T09:16:07;97600.69;;;14.03;100.00
43701;BME280;58809;47.984;7.964;2023-08-07T09:19:10;97608.31;;;14.41;100.00
43701;BME280;58809;47.984;7.964;2023-08-07T09:22:12;97600.84;;;14.30;100.00
43701;BME280;58809;47.984;7.964;2023-08-07T09:25:14;97597.97;;;14.25;100.00
43701;BME280;58809;47.984;7.964;2023-08-07T09:28:16;97597.25;;;14.73;100.00
43701;BME280;58809;47.984;7.964;2023-08-07T09:31:17;97600.19;;;14.98;100.00
43701;BME280;58809;47.984;7.964;2023-08-07T09:34:22;97597.09;;;16.29;100.00
43701;BME280;58809;47.984;7.964;2023-08-07T09:37:23;97595.84;;;17.10;100.00
43701;BME280;58809;47.984;7.964;2023-08-07T09:40:25;97595.91;;;16.12;100.00
43701;BME280;58809;47.984;7.964;2023-08-07T09:43:28;97598.56;;;15.78;100.00
43701;BME280;58809;47.984;7.964;2023-08-07T09:46:29;97599.59;;;16.17;100.00
43701;BME280;58809;47.984;7.964;2023-08-07T09:49:38;97595.50;;;17.00;100.00
43701;BME280;58809;47.984;7.964;2023-08-07T09:52:40;97601.13;;;16.85;100.00
43701;BME280;58809;47.984;7.964;2023-08-07T09:55:42;97602.34;;;16.76;100.00
43701;BME280;58809;47.984;7.964;2023-08-07T09:58:47;97607.63;;;17.73;100.00
43701;BME280;58809;47.984;7.964;2023-08-07T10:01:50;97614.22;;;18.27;100.00
43701;BME280;58809;47.984;7.964;2023-08-07T10:04:52;97613.22;;;19.21;100.00
43701;BME280;58809;47.984;7.964;2023-08-07T10:07:54;97612.38;;;18.03;100.00
43701;BME280;58809;47.984;7.964;2023-08-07T10:10:58;97606.91;;;17.21;100.00
43701;BME280;58809;47.984;7.964;2023-08-07T10:14:00;97614.50;;;16.65;100.00
43701;BME280;58809;47.984;7.964;2023-08-07T10:17:02;97616.63;;;16.23;100.00
43701;BME280;58809;47.984;7.964;2023-08-07T10:20:05;97615.00;;;15.89;100.00
43701;BME280;58809;47.984;7.964;2023-08-07T10:23:10;97615.34;;;15.66;100.00
43701;BME280;58809;47.984;7.964;2023-08-07T10:26:12;97621.66;;;15.38;100.00
43701;BME280;58809;47.984;7.964;2023-08-07T10:29:17;97617.09;;;15.18;100.00
43701;BME280;58809;47.984;7.964;2023-08-07T10:32:21;97619.00;;;15.45;100.00
43701;BME280;58809;47.984;7.964;2023-08-07T10:35:29;97627.50;;;15.82;100.00
43701;BME280;58809;47.984;7.964;2023-08-07T10:38:31;97627.09;;;15.98;100.00
43701;BME280;58809;47.984;7.964;2023-08-07T10:41:41;97623.22;;;15.94;100.00
43701;BME280;58809;47.984;7.964;2023-08-07T10:44:48;97619.84;;;16.65;100.00
43701;BME280;58809;47.984;7.964;2023-08-07T10:51:03;97619.13;;;19.11;100.00
43701;BME280;58809;47.984;7.964;2023-08-07T10:54:05;97610.03;;;19.42;100.00
43701;BME280;58809;47.984;7.964;2023-08-07T10:57:10;97612.19;;;19.83;100.00
43701;BME280;58809;47.984;7.964;2023-08-07T11:00:12;97605.47;;;20.39;100.00
43701;BME280;58809;47.984;7.964;2023-08-07T11:03:26;97618.16;;;20.08;95.73
43701;BME280;58809;47.984;7.964;2023-08-07T11:06:30;97621.09;;;19.16;81.38
43701;BME280;58809;47.984;7.964;2023-08-07T11:09:33;97611.53;;;20.23;82.62
43701;BME280;58809;47.984;7.964;2023-08-07T11:12:35;97604.63;;;20.27;75.51
43701;BME280;58809;47.984;7.964;2023-08-07T11:15:38;97603.63;;;21.04;73.73
43701;BME280;58809;47.984;7.964;2023-08-07T11:18:41;97610.59;;;20.76;71.06
43701;BME280;58809;47.984;7.964;2023-08-07T11:21:43;97606.38;;;20.33;64.89
43701;BME280;58809;47.984;7.964;2023-08-07T11:24:46;97600.06;;;20.15;67.16
43701;BME280;58809;47.984;7.964;2023-08-07T11:27:48;97603.09;;;20.78;66.13
43701;BME280;58809;47.984;7.964;2023-08-07T11:30:51;97604.84;;;20.49;67.61
43701;BME280;58809;47.984;7.964;2023-08-07T11:33:57;97609.28;;;20.90;67.07
43701;BME280;58809;47.984;7.964;2023-08-07T11:36:59;97607.66;;;21.76;66.07
43701;BME280;58809;47.984;7.964;2023-08-07T11:40:02;97608.53;;;22.27;62.49
43701;BME280;58809;47.984;7.964;2023-08-07T11:43:04;97603.09;;;21.19;66.05
43701;BME280;58809;47.984;7.964;2023-08-07T11:46:07;97610.56;;;20.88;65.55
43701;BME280;58809;47.984;7.964;2023-08-07T11:49:09;97603.81;;;20.03;67.10
43701;BME280;58809;47.984;7.964;2023-08-07T11:52:12;97603.53;;;19.20;67.96
43701;BME280;58809;47.984;7.964;2023-08-07T11:55:15;97601.59;;;18.72;71.87
43701;BME280;58809;47.984;7.964;2023-08-07T11:58:17;97597.09;;;18.28;73.89
43701;BME280;58809;47.984;7.964;2023-08-07T12:01:20;97596.94;;;18.85;79.80
43701;BME280;58809;47.984;7.964;2023-08-07T12:04:23;97599.25;;;20.50;75.49
43701;BME280;58809;47.984;7.964;2023-08-07T12:07:25;97597.97;;;21.17;75.27
43701;BME280;58809;47.984;7.964;2023-08-07T12:10:29;97600.00;;;22.01;73.02
43701;BME280;58809;47.984;7.964;2023-08-07T12:13:31;97589.31;;;21.44;69.57
43701;BME280;58809;47.984;7.964;2023-08-07T12:16:36;97597.28;;;23.62;66.51
43701;BME280;58809;47.984;7.964;2023-08-07T12:19:39;97596.28;;;23.41;62.47
43701;BME280;58809;47.984;7.964;2023-08-07T12:22:42;97589.03;;;21.28;62.68
43701;BME280;58809;47.984;7.964;2023-08-07T12:25:45;97586.03;;;19.90;65.86
43701;BME280;58809;47.984;7.964;2023-08-07T12:28:47;97588.41;;;19.26;66.48
43701;BME280;58809;47.984;7.964;2023-08-07T12:31:49;97582.63;;;19.52;68.01
43701;BME280;58809;47.984;7.964;2023-08-07T12:34:50;97591.53;;;20.77;66.26
43701;BME280;58809;47.984;7.964;2023-08-07T12:37:55;97582.41;;;20.55;67.84
43701;BME280;58809;47.984;7.964;2023-08-07T12:40:56;97576.56;;;21.39;66.44
43701;BME280;58809;47.984;7.964;2023-08-07T12:43:58;97595.97;;;23.65;61.97
43701;BME280;58809;47.984;7.964;2023-08-07T12:47:02;97584.09;;;26.55;53.77
43701;BME280;58809;47.984;7.964;2023-08-07T12:50:04;97578.94;;;25.66;53.77
43701;BME280;58809;47.984;7.964;2023-08-07T12:53:08;97578.00;;;25.09;53.78
43701;BME280;58809;47.984;7.964;2023-08-07T12:56:09;97587.81;;;24.62;57.05
43701;BME280;58809;47.984;7.964;2023-08-07T12:59:12;97577.84;;;28.91;49.75
43701;BME280;58809;47.984;7.964;2023-08-07T13:02:13;97584.78;;;32.37;40.30
43701;BME280;58809;47.984;7.964;2023-08-07T13:05:15;97580.22;;;35.50;37.53
43701;BME280;58809;47.984;7.964;2023-08-07T13:08:18;97579.50;;;39.48;35.02
43701;BME280;58809;47.984;7.964;2023-08-07T13:11:20;97565.91;;;37.31;32.18
43701;BME280;58809;47.984;7.964;2023-08-07T13:14:21;97551.28;;;26.36;41.38
43701;BME280;58809;47.984;7.964;2023-08-07T13:17:23;97551.53;;;23.23;49.68
43701;BME280;58809;47.984;7.964;2023-08-07T13:20:24;97542.69;;;24.78;51.98
43701;BME280;58809;47.984;7.964;2023-08-07T13:23:27;97550.88;;;23.71;53.52
43701;BME280;58809;47.984;7.964;2023-08-07T13:26:29;97535.66;;;22.61;54.39
43701;BME280;58809;47.984;7.964;2023-08-07T13:29:31;97532.91;;;21.83;54.20
43701;BME280;58809;47.984;7.964;2023-08-07T13:32:33;97545.44;;;22.45;55.90
43701;BME280;58809;47.984;7.964;2023-08-07T13:35:34;97542.66;;;22.23;54.37
43701;BME280;58809;47.984;7.964;2023-08-07T13:38:36;97550.97;;;21.65;54.98
43701;BME280;58809;47.984;7.964;2023-08-07T13:41:38;97552.91;;;27.62;44.22
43701;BME280;58809;47.984;7.964;2023-08-07T13:44:39;97562.25;;;33.29;39.31
43701;BME280;58809;47.984;7.964;2023-08-07T13:47:41;97574.06;;;37.40;36.80
43701;BME280;58809;47.984;7.964;2023-08-07T13:50:43;97565.66;;;36.37;32.57
43701;BME280;58809;47.984;7.964;2023-08-07T13:53:45;97565.34;;;37.13;34.23
43701;BME280;58809;47.984;7.964;2023-08-07T13:56:47;97566.66;;;37.56;30.61
43701;BME280;58809;47.984;7.964;2023-08-07T13:59:50;97561.94;;;34.00;35.28
43701;BME280;58809;47.984;7.964;2023-08-07T14:02:52;97568.03;;;34.23;32.92
43701;BME280;58809;47.984;7.964;2023-08-07T14:05:53;97563.13;;;34.85;35.46
43701;BME280;58809;47.984;7.964;2023-08-07T14:08:55;97565.59;;;34.30;34.04
43701;BME280;58809;47.984;7.964;2023-08-07T14:11:57;97563.75;;;28.07;40.30
43701;BME280;58809;47.984;7.964;2023-08-07T14:15:00;97570.56;;;24.78;45.53
43701;BME280;58809;47.984;7.964;2023-08-07T14:18:01;97573.06;;;24.43;44.75
43701;BME280;58809;47.984;7.964;2023-08-07T14:21:03;97580.34;;;22.74;49.78
43701;BME280;58809;47.984;7.964;2023-08-07T14:24:05;97572.72;;;21.47;52.91
43701;BME280;58809;47.984;7.964;2023-08-07T14:27:08;97580.50;;;21.77;54.43
43701;BME280;58809;47.984;7.964;2023-08-07T14:30:10;97595.81;;;26.04;48.32
43701;BME280;58809;47.984;7.964;2023-08-07T14:33:12;97599.16;;;30.69;40.18
43701;BME280;58809;47.984;7.964;2023-08-07T14:36:14;97599.09;;;33.05;36.11
43701;BME280;58809;47.984;7.964;2023-08-07T14:39:17;97595.16;;;34.16;36.18
43701;BME280;58809;47.984;7.964;2023-08-07T14:42:23;97593.28;;;35.53;34.28
43701;BME280;58809;47.984;7.964;2023-08-07T14:45:25;97594.69;;;35.08;32.08
43701;BME280;58809;47.984;7.964;2023-08-07T14:48:27;97589.94;;;34.49;33.78
43701;BME280;58809;47.984;7.964;2023-08-07T14:51:28;97590.56;;;35.74;33.42
43701;BME280;58809;47.984;7.964;2023-08-07T14:54:30;97595.59;;;37.34;32.16
43701;BME280;58809;47.984;7.964;2023-08-07T14:57:33;97576.88;;;35.44;30.93
43701;BME280;58809;47.984;7.964;2023-08-07T15:00:35;97587.28;;;36.60;31.51
43701;BME280;58809;47.984;7.964;2023-08-07T15:03:36;97582.72;;;37.26;28.58
43701;BME280;58809;47.984;7.964;2023-08-07T15:06:38;97578.00;;;32.34;33.43
43701;BME280;58809;47.984;7.964;2023-08-07T15:09:40;97559.97;;;30.32;34.42
43701;BME280;58809;47.984;7.964;2023-08-07T15:12:42;97565.59;;;33.17;34.00
43701;BME280;58809;47.984;7.964;2023-08-07T15:15:44;97563.78;;;35.12;31.86
43701;BME280;58809;47.984;7.964;2023-08-07T15:18:46;97559.50;;;33.46;33.00
43701;BME280;58809;47.984;7.964;2023-08-07T15:21:50;97558.00;;;30.93;34.53
43701;BME280;58809;47.984;7.964;2023-08-07T15:24:52;97547.47;;;28.01;37.77
43701;BME280;58809;47.984;7.964;2023-08-07T15:27:54;97554.72;;;25.18;41.58
43701;BME280;58809;47.984;7.964;2023-08-07T15:30:56;97554.16;;;23.45;44.80
43701;BME280;58809;47.984;7.964;2023-08-07T15:33:58;97557.19;;;22.78;46.01
43701;BME280;58809;47.984;7.964;2023-08-07T15:37:00;97546.75;;;22.25;47.83
43701;BME280;58809;47.984;7.964;2023-08-07T15:40:02;97550.44;;;22.36;48.46
43701;BME280;58809;47.984;7.964;2023-08-07T15:43:04;97546.19;;;22.23;49.06
43701;BME280;58809;47.984;7.964;2023-08-07T15:46:05;97554.97;;;21.80;49.19
43701;BME280;58809;47.984;7.964;2023-08-07T15:49:07;97557.72;;;21.39;49.90
43701;BME280;58809;47.984;7.964;2023-08-07T15:52:09;97555.94;;;20.99;51.07
43701;BME280;58809;47.984;7.964;2023-08-07T15:55:11;97556.63;;;20.94;50.85
43701;BME280;58809;47.984;7.964;2023-08-07T15:58:13;97560.22;;;22.25;49.03
43701;BME280;58809;47.984;7.964;2023-08-07T16:01:14;97560.31;;;24.81;44.71
43701;BME280;58809;47.984;7.964;2023-08-07T16:04:16;97571.81;;;24.55;45.01